sensor_id;sensor_type;location;lat;lon;timestamp;P1;durP1;ratioP1;P2;durP2;ratioP2
56122;SDS011;42426;46.104;19.656;2022-08-19T00:00:29;13.07;;;8.60;;
56122;SDS011;42426;46.104;19.656;2022-08-19T00:02:54;13.70;;;8.95;;
56122;SDS011;42426;46.104;19.656;2022-08-19T00:05:22;10.35;;;9.30;;
56122;SDS011;42426;46.104;19.656;2022-08-19T00:07:48;10.15;;;8.30;;
56122;SDS011;42426;46.104;19.656;2022-08-19T00:10:16;11.02;;;8.95;;
56122;SDS011;42426;46.104;19.656;2022-08-19T00:12:44;11.68;;;9.18;;
56122;SDS011;42426;46.104;19.656;2022-08-19T00:15:11;11.18;;;9.02;;
56122;SDS011;42426;46.104;19.656;2022-08-19T00:17:40;9.45;;;8.50;;
56122;SDS011;42426;46.104;19.656;2022-08-19T00:20:08;13.50;;;9.10;;
56122;SDS011;42426;46.104;19.656;2022-08-19T00:22:36;17.00;;;9.90;;
56122;SDS011;42426;46.104;19.656;2022-08-19T00:25:03;11.00;;;9.20;;
56122;SDS011;42426;46.104;19.656;2022-08-19T00:27:29;11.65;;;8.82;;
56122;SDS011;42426;46.104;19.656;2022-08-19T00:29:55;10.77;;;9.00;;
56122;SDS011;42426;46.104;19.656;2022-08-19T00:32:24;12.10;;;9.57;;
56122;SDS011;42426;46.104;19.656;2022-08-19T00:34:51;12.82;;;9.27;;
56122;SDS011;42426;46.104;19.656;2022-08-19T00:37:18;11.82;;;9.27;;
56122;SDS011;42426;46.104;19.656;2022-08-19T00:39:47;15.23;;;8.98;;
56122;SDS011;42426;46.104;19.656;2022-08-19T00:42:13;11.30;;;9.10;;
56122;SDS011;42426;46.104;19.656;2022-08-19T00:44:40;10.05;;;8.50;;
56122;SDS011;42426;46.104;19.656;2022-08-19T00:47:08;12.38;;;9.00;;
56122;SDS011;42426;46.104;19.656;2022-08-19T00:49:35;12.05;;;9.20;;
56122;SDS011;42426;46.104;19.656;2022-08-19T00:52:27;12.50;;;9.32;;
56122;SDS011;42426;46.104;19.656;2022-08-19T00:54:56;11.90;;;9.32;;
56122;SDS011;42426;46.104;19.656;2022-08-19T00:57:26;14.25;;;9.52;;
56122;SDS011;42426;46.104;19.656;2022-08-19T00:59:59;11.18;;;10.07;;
56122;SDS011;42426;46.104;19.656;2022-08-19T01:02:26;10.70;;;9.20;;
56122;SDS011;42426;46.104;19.656;2022-08-19T01:04:53;12.95;;;9.10;;
56122;SDS011;42426;46.104;19.656;2022-08-19T01:07:19;12.70;;;8.95;;
56122;SDS011;42426;46.104;19.656;2022-08-19T01:09:45;11.32;;;9.85;;
56122;SDS011;42426;46.104;19.656;2022-08-19T01:12:12;12.73;;;9.40;;
56122;SDS011;42426;46.104;19.656;2022-08-19T01:14:39;10.30;;;9.05;;
56122;SDS011;42426;46.104;19.656;2022-08-19T01:17:06;11.43;;;10.25;;
56122;SDS011;42426;46.104;19.656;2022-08-19T01:19:35;12.52;;;9.25;;
56122;SDS011;42426;46.104;19.656;2022-08-19T01:22:16;15.48;;;9.88;;
56122;SDS011;42426;46.104;19.656;2022-08-19T01:24:48;13.75;;;9.65;;
56122;SDS011;42426;46.104;19.656;2022-08-19T01:27:16;12.10;;;10.48;;
56122;SDS011;42426;46.104;19.656;2022-08-19T01:29:42;10.32;;;9.30;;
56122;SDS011;42426;46.104;19.656;2022-08-19T01:32:11;10.43;;;9.32;;
56122;SDS011;42426;46.104;19.656;2022-08-19T01:34:39;11.63;;;9.27;;
56122;SDS011;42426;46.104;19.656;2022-08-19T01:37:09;13.02;;;9.25;;
56122;SDS011;42426;46.104;19.656;2022-08-19T01:39:37;12.45;;;9.52;;
56122;SDS011;42426;46.104;19.656;2022-08-19T01:42:05;11.38;;;9.35;;
56122;SDS011;42426;46.104;19.656;2022-08-19T01:44:34;12.30;;;8.88;;
56122;SDS011;42426;46.104;19.656;2022-08-19T01:47:01;11.68;;;9.50;;
56122;SDS011;42426;46.104;19.656;2022-08-19T01:49:29;11.85;;;9.48;;
56122;SDS011;42426;46.104;19.656;2022-08-19T01:51:55;19.60;;;10.20;;
56122;SDS011;42426;46.104;19.656;2022-08-19T01:54:22;25.13;;;11.25;;
56122;SDS011;42426;46.104;19.656;2022-08-19T01:56:49;14.73;;;9.95;;
56122;SDS011;42426;46.104;19.656;2022-08-19T01:59:17;19.30;;;10.13;;
56122;SDS011;42426;46.104;19.656;2022-08-19T02:01:46;16.48;;;10.18;;
56122;SDS011;42426;46.104;19.656;2022-08-19T02:04:11;15.32;;;9.50;;
56122;SDS011;42426;46.104;19.656;2022-08-19T02:06:37;18.23;;;11.00;;
56122;SDS011;42426;46.104;19.656;2022-08-19T02:09:06;17.95;;;9.98;;
56122;SDS011;42426;46.104;19.656;2022-08-19T02:11:34;16.10;;;9.70;;
56122;SDS011;42426;46.104;19.656;2022-08-19T02:14:02;12.68;;;9.93;;
56122;SDS011;42426;46.104;19.656;2022-08-19T02:16:30;16.88;;;10.93;;
56122;SDS011;42426;46.104;19.656;2022-08-19T02:18:57;13.23;;;10.00;;
56122;SDS011;42426;46.104;19.656;2022-08-19T02:21:25;12.52;;;10.68;;
56122;SDS011;42426;46.104;19.656;2022-08-19T02:23:52;16.88;;;9.65;;
56122;SDS011;42426;46.104;19.656;2022-08-19T02:26:18;12.65;;;9.48;;
56122;SDS011;42426;46.104;19.656;2022-08-19T02:28:44;10.98;;;9.48;;
56122;SDS011;42426;46.104;19.656;2022-08-19T02:31:11;12.40;;;8.98;;
56122;SDS011;42426;46.104;19.656;2022-08-19T02:33:39;16.42;;;9.02;;
56122;SDS011;42426;46.104;19.656;2022-08-19T02:36:06;11.13;;;9.98;;
56122;SDS011;42426;46.104;19.656;2022-08-19T02:38:34;12.75;;;9.45;;
56122;SDS011;42426;46.104;19.656;2022-08-19T02:41:11;11.20;;;9.68;;
56122;SDS011;42426;46.104;19.656;2022-08-19T02:43:42;13.95;;;9.93;;
56122;SDS011;42426;46.104;19.656;2022-08-19T02:46:16;14.60;;;10.63;;
56122;SDS011;42426;46.104;19.656;2022-08-19T02:48:46;10.68;;;9.05;;
56122;SDS011;42426;46.104;19.656;2022-08-19T02:51:17;10.85;;;9.10;;
56122;SDS011;42426;46.104;19.656;2022-08-19T02:53:44;11.77;;;9.98;;
56122;SDS011;42426;46.104;19.656;2022-08-19T02:56:11;12.45;;;11.15;;
56122;SDS011;42426;46.104;19.656;2022-08-19T02:58:37;12.93;;;9.90;;
56122;SDS011;42426;46.104;19.656;2022-08-19T03:01:06;10.70;;;9.60;;
56122;SDS011;42426;46.104;19.656;2022-08-19T03:03:32;17.63;;;12.13;;
56122;SDS011;42426;46.104;19.656;2022-08-19T03:06:09;12.30;;;10.88;;
56122;SDS011;42426;46.104;19.656;2022-08-19T03:08:40;12.65;;;10.65;;
56122;SDS011;42426;46.104;19.656;2022-08-19T03:11:12;11.65;;;10.32;;
56122;SDS011;42426;46.104;19.656;2022-08-19T03:13:46;14.05;;;10.70;;
56122;SDS011;42426;46.104;19.656;2022-08-19T03:16:14;10.82;;;9.73;;
56122;SDS011;42426;46.104;19.656;2022-08-19T03:18:41;10.48;;;9.35;;
56122;SDS011;42426;46.104;19.656;2022-08-19T03:21:07;10.82;;;9.68;;
56122;SDS011;42426;46.104;19.656;2022-08-19T03:23:34;21.25;;;10.32;;
56122;SDS011;42426;46.104;19.656;2022-08-19T03:26:02;12.88;;;9.50;;
56122;SDS011;42426;46.104;19.656;2022-08-19T03:28:31;12.40;;;9.57;;
56122;SDS011;42426;46.104;19.656;2022-08-19T03:31:07;14.80;;;9.27;;
56122;SDS011;42426;46.104;19.656;2022-08-19T03:33:36;14.05;;;9.50;;
56122;SDS011;42426;46.104;19.656;2022-08-19T03:38:30;14.38;;;10.73;;
56122;SDS011;42426;46.104;19.656;2022-08-19T03:40:57;15.77;;;9.77;;
56122;SDS011;42426;46.104;19.656;2022-08-19T03:43:26;12.35;;;9.35;;
56122;SDS011;42426;46.104;19.656;2022-08-19T03:46:00;15.70;;;9.65;;
56122;SDS011;42426;46.104;19.656;2022-08-19T03:48:29;12.82;;;9.55;;
56122;SDS011;42426;46.104;19.656;2022-08-19T03:50:55;13.82;;;10.35;;
56122;SDS011;42426;46.104;19.656;2022-08-19T03:53:23;13.50;;;9.60;;
56122;SDS011;42426;46.104;19.656;2022-08-19T03:55:50;13.57;;;10.27;;
56122;SDS011;42426;46.104;19.656;2022-08-19T03:58:16;11.90;;;9.48;;
56122;SDS011;42426;46.104;19.656;2022-08-19T04:00:42;11.93;;;10.65;;
56122;SDS011;42426;46.104;19.656;2022-08-19T04:03:09;14.40;;;9.75;;
56122;SDS011;42426;46.104;19.656;2022-08-19T04:05:35;16.77;;;10.13;;
56122;SDS011;42426;46.104;19.656;2022-08-19T04:08:04;12.00;;;9.63;;
56122;SDS011;42426;46.104;19.656;2022-08-19T04:10:31;11.05;;;9.25;;
56122;SDS011;42426;46.104;19.656;2022-08-19T04:13:01;13.43;;;9.98;;
56122;SDS011;42426;46.104;19.656;2022-08-19T04:15:29;13.63;;;10.13;;
56122;SDS011;42426;46.104;19.656;2022-08-19T04:17:56;18.40;;;9.20;;
56122;SDS011;42426;46.104;19.656;2022-08-19T04:20:24;17.08;;;10.20;;
56122;SDS011;42426;46.104;19.656;2022-08-19T04:22:49;15.45;;;10.18;;
56122;SDS011;42426;46.104;19.656;2022-08-19T04:25:17;16.13;;;10.55;;
56122;SDS011;42426;46.104;19.656;2022-08-19T04:27:43;13.65;;;9.93;;
56122;SDS011;42426;46.104;19.656;2022-08-19T04:30:12;10.82;;;7.68;;
56122;SDS011;42426;46.104;19.656;2022-08-19T04:32:38;12.00;;;9.82;;
56122;SDS011;42426;46.104;19.656;2022-08-19T04:35:04;10.15;;;8.75;;
56122;SDS011;42426;46.104;19.656;2022-08-19T04:37:30;12.13;;;9.32;;
56122;SDS011;42426;46.104;19.656;2022-08-19T04:39:59;13.20;;;10.13;;
56122;SDS011;42426;46.104;19.656;2022-08-19T04:42:43;13.52;;;8.77;;
56122;SDS011;42426;46.104;19.656;2022-08-19T04:45:12;20.38;;;10.27;;
56122;SDS011;42426;46.104;19.656;2022-08-19T04:47:40;15.52;;;10.45;;
56122;SDS011;42426;46.104;19.656;2022-08-19T04:50:07;12.07;;;10.02;;
56122;SDS011;42426;46.104;19.656;2022-08-19T04:52:37;12.98;;;10.52;;
56122;SDS011;42426;46.104;19.656;2022-08-19T04:55:07;10.73;;;7.63;;
56122;SDS011;42426;46.104;19.656;2022-08-19T04:57:37;10.18;;;8.05;;
56122;SDS011;42426;46.104;19.656;2022-08-19T05:00:06;15.15;;;10.88;;
56122;SDS011;42426;46.104;19.656;2022-08-19T05:02:33;13.63;;;10.05;;
56122;SDS011;42426;46.104;19.656;2022-08-19T05:05:00;17.17;;;10.35;;
56122;SDS011;42426;46.104;19.656;2022-08-19T05:07:26;14.68;;;9.90;;
56122;SDS011;42426;46.104;19.656;2022-08-19T05:09:53;12.15;;;8.20;;
56122;SDS011;42426;46.104;19.656;2022-08-19T05:12:20;15.45;;;10.27;;
56122;SDS011;42426;46.104;19.656;2022-08-19T05:14:46;17.15;;;10.82;;
56122;SDS011;42426;46.104;19.656;2022-08-19T05:17:13;10.45;;;9.23;;
56122;SDS011;42426;46.104;19.656;2022-08-19T05:19:39;13.45;;;10.07;;
56122;SDS011;42426;46.104;19.656;2022-08-19T05:22:23;14.00;;;10.90;;
56122;SDS011;42426;46.104;19.656;2022-08-19T05:25:07;16.05;;;11.45;;
56122;SDS011;42426;46.104;19.656;2022-08-19T05:27:35;12.90;;;10.32;;
56122;SDS011;42426;46.104;19.656;2022-08-19T05:30:02;13.77;;;10.23;;
56122;SDS011;42426;46.104;19.656;2022-08-19T05:32:30;15.32;;;10.77;;
56122;SDS011;42426;46.104;19.656;2022-08-19T05:34:56;14.55;;;9.25;;
56122;SDS011;42426;46.104;19.656;2022-08-19T05:37:22;13.50;;;10.20;;
56122;SDS011;42426;46.104;19.656;2022-08-19T05:39:48;18.63;;;10.20;;
56122;SDS011;42426;46.104;19.656;2022-08-19T05:42:15;13.25;;;9.18;;
56122;SDS011;42426;46.104;19.656;2022-08-19T05:44:42;14.55;;;10.25;;
56122;SDS011;42426;46.104;19.656;2022-08-19T05:47:09;16.70;;;10.65;;
56122;SDS011;42426;46.104;19.656;2022-08-19T05:49:37;10.98;;;9.43;;
56122;SDS011;42426;46.104;19.656;2022-08-19T05:52:07;18.42;;;12.10;;
56122;SDS011;42426;46.104;19.656;2022-08-19T05:54:37;13.05;;;10.10;;
56122;SDS011;42426;46.104;19.656;2022-08-19T05:57:06;19.27;;;11.10;;
56122;SDS011;42426;46.104;19.656;2022-08-19T05:59:32;18.33;;;10.85;;
56122;SDS011;42426;46.104;19.656;2022-08-19T06:02:00;21.13;;;10.05;;
56122;SDS011;42426;46.104;19.656;2022-08-19T06:04:26;15.63;;;11.38;;
56122;SDS011;42426;46.104;19.656;2022-08-19T06:06:52;15.13;;;10.70;;
56122;SDS011;42426;46.104;19.656;2022-08-19T06:09:19;10.00;;;8.95;;
56122;SDS011;42426;46.104;19.656;2022-08-19T06:11:53;22.45;;;9.70;;
56122;SDS011;42426;46.104;19.656;2022-08-19T06:14:24;10.40;;;8.63;;
56122;SDS011;42426;46.104;19.656;2022-08-19T06:16:53;16.08;;;10.50;;
56122;SDS011;42426;46.104;19.656;2022-08-19T06:19:19;16.35;;;10.45;;
56122;SDS011;42426;46.104;19.656;2022-08-19T06:21:48;15.10;;;10.65;;
56122;SDS011;42426;46.104;19.656;2022-08-19T06:24:17;13.93;;;10.38;;
56122;SDS011;42426;46.104;19.656;2022-08-19T06:26:46;16.95;;;10.35;;
56122;SDS011;42426;46.104;19.656;2022-08-19T06:29:14;13.68;;;10.45;;
56122;SDS011;42426;46.104;19.656;2022-08-19T06:31:42;13.25;;;11.70;;
56122;SDS011;42426;46.104;19.656;2022-08-19T06:34:10;14.40;;;9.98;;
56122;SDS011;42426;46.104;19.656;2022-08-19T06:36:37;12.07;;;9.60;;
56122;SDS011;42426;46.104;19.656;2022-08-19T06:39:11;16.23;;;10.68;;
56122;SDS011;42426;46.104;19.656;2022-08-19T06:41:47;14.18;;;11.05;;
56122;SDS011;42426;46.104;19.656;2022-08-19T06:44:15;15.80;;;10.75;;
56122;SDS011;42426;46.104;19.656;2022-08-19T06:46:42;11.38;;;9.60;;
56122;SDS011;42426;46.104;19.656;2022-08-19T06:49:09;19.17;;;12.73;;
56122;SDS011;42426;46.104;19.656;2022-08-19T06:51:39;14.90;;;10.65;;
56122;SDS011;42426;46.104;19.656;2022-08-19T06:54:10;16.40;;;10.52;;
56122;SDS011;42426;46.104;19.656;2022-08-19T06:56:36;17.27;;;10.63;;
56122;SDS011;42426;46.104;19.656;2022-08-19T06:59:07;11.10;;;9.93;;
56122;SDS011;42426;46.104;19.656;2022-08-19T07:01:39;19.98;;;11.63;;
56122;SDS011;42426;46.104;19.656;2022-08-19T07:04:12;19.02;;;10.43;;
56122;SDS011;42426;46.104;19.656;2022-08-19T07:06:38;11.73;;;10.20;;
56122;SDS011;42426;46.104;19.656;2022-08-19T07:09:05;16.95;;;11.70;;
56122;SDS011;42426;46.104;19.656;2022-08-19T07:11:31;13.13;;;10.35;;
56122;SDS011;42426;46.104;19.656;2022-08-19T07:13:58;11.60;;;10.48;;
56122;SDS011;42426;46.104;19.656;2022-08-19T07:16:24;12.15;;;9.90;;
56122;SDS011;42426;46.104;19.656;2022-08-19T07:18:51;12.35;;;10.75;;
56122;SDS011;42426;46.104;19.656;2022-08-19T07:21:21;17.67;;;11.80;;
56122;SDS011;42426;46.104;19.656;2022-08-19T07:23:54;11.32;;;10.15;;
56122;SDS011;42426;46.104;19.656;2022-08-19T07:26:22;15.80;;;9.93;;
56122;SDS011;42426;46.104;19.656;2022-08-19T07:28:49;14.27;;;10.07;;
56122;SDS011;42426;46.104;19.656;2022-08-19T07:31:21;12.65;;;10.48;;
56122;SDS011;42426;46.104;19.656;2022-08-19T07:33:49;16.73;;;11.38;;
56122;SDS011;42426;46.104;19.656;2022-08-19T07:36:17;17.55;;;12.23;;
56122;SDS011;42426;46.104;19.656;2022-08-19T07:38:44;11.80;;;10.55;;
56122;SDS011;42426;46.104;19.656;2022-08-19T07:41:11;11.85;;;10.70;;
56122;SDS011;42426;46.104;19.656;2022-08-19T07:43:38;19.27;;;11.02;;
56122;SDS011;42426;46.104;19.656;2022-08-19T07:46:04;12.65;;;11.02;;
56122;SDS011;42426;46.104;19.656;2022-08-19T07:48:30;17.58;;;12.27;;
56122;SDS011;42426;46.104;19.656;2022-08-19T07:50:57;19.33;;;12.50;;
56122;SDS011;42426;46.104;19.656;2022-08-19T07:53:27;16.58;;;12.57;;
56122;SDS011;42426;46.104;19.656;2022-08-19T07:55:54;17.77;;;13.55;;
56122;SDS011;42426;46.104;19.656;2022-08-19T07:58:25;20.38;;;12.48;;
56122;SDS011;42426;46.104;19.656;2022-08-19T08:00:52;15.60;;;12.90;;
56122;SDS011;42426;46.104;19.656;2022-08-19T08:03:19;19.25;;;12.68;;
56122;SDS011;42426;46.104;19.656;2022-08-19T08:05:45;17.25;;;13.52;;
56122;SDS011;42426;46.104;19.656;2022-08-19T08:08:30;18.70;;;11.30;;
56122;SDS011;42426;46.104;19.656;2022-08-19T08:11:19;19.65;;;13.00;;
56122;SDS011;42426;46.104;19.656;2022-08-19T08:13:46;15.48;;;11.38;;
56122;SDS011;42426;46.104;19.656;2022-08-19T08:16:13;13.27;;;11.10;;
56122;SDS011;42426;46.104;19.656;2022-08-19T08:18:39;21.35;;;11.75;;
56122;SDS011;42426;46.104;19.656;2022-08-19T08:21:07;19.38;;;13.00;;
56122;SDS011;42426;46.104;19.656;2022-08-19T08:23:33;13.40;;;12.00;;
56122;SDS011;42426;46.104;19.656;2022-08-19T08:25:59;15.00;;;11.32;;
56122;SDS011;42426;46.104;19.656;2022-08-19T08:28:27;18.50;;;11.73;;
56122;SDS011;42426;46.104;19.656;2022-08-19T08:30:53;12.73;;;10.30;;
56122;SDS011;42426;46.104;19.656;2022-08-19T08:33:20;16.05;;;13.73;;
56122;SDS011;42426;46.104;19.656;2022-08-19T08:35:49;15.15;;;11.70;;
56122;SDS011;42426;46.104;19.656;2022-08-19T08:38:15;17.60;;;13.32;;
56122;SDS011;42426;46.104;19.656;2022-08-19T08:40:50;17.73;;;13.52;;
56122;SDS011;42426;46.104;19.656;2022-08-19T08:46:05;16.05;;;12.48;;
56122;SDS011;42426;46.104;19.656;2022-08-19T08:48:54;17.05;;;12.25;;
56122;SDS011;42426;46.104;19.656;2022-08-19T08:51:27;14.68;;;12.27;;
56122;SDS011;42426;46.104;19.656;2022-08-19T08:53:55;19.52;;;11.38;;
56122;SDS011;42426;46.104;19.656;2022-08-19T08:56:22;16.00;;;13.05;;
56122;SDS011;42426;46.104;19.656;2022-08-19T09:01:14;15.70;;;12.38;;
56122;SDS011;42426;46.104;19.656;2022-08-19T09:03:41;17.63;;;12.48;;
56122;SDS011;42426;46.104;19.656;2022-08-19T09:08:52;22.83;;;12.33;;
56122;SDS011;42426;46.104;19.656;2022-08-19T09:14:43;23.75;;;12.82;;
56122;SDS011;42426;46.104;19.656;2022-08-19T09:16:48;17.80;;;11.10;;
56122;SDS011;42426;46.104;19.656;2022-08-19T09:19:16;18.13;;;11.20;;
56122;SDS011;42426;46.104;19.656;2022-08-19T09:21:42;13.50;;;11.35;;
56122;SDS011;42426;46.104;19.656;2022-08-19T09:24:10;17.55;;;12.55;;
56122;SDS011;42426;46.104;19.656;2022-08-19T09:26:36;14.77;;;11.05;;
56122;SDS011;42426;46.104;19.656;2022-08-19T09:29:02;17.08;;;11.95;;
56122;SDS011;42426;46.104;19.656;2022-08-19T09:31:30;15.40;;;12.13;;
56122;SDS011;42426;46.104;19.656;2022-08-19T09:33:57;27.38;;;11.95;;
56122;SDS011;42426;46.104;19.656;2022-08-19T09:36:25;17.00;;;11.90;;
56122;SDS011;42426;46.104;19.656;2022-08-19T09:38:52;19.77;;;11.98;;
56122;SDS011;42426;46.104;19.656;2022-08-19T09:41:19;15.45;;;11.73;;
56122;SDS011;42426;46.104;19.656;2022-08-19T09:43:47;12.82;;;10.85;;
56122;SDS011;42426;46.104;19.656;2022-08-19T09:46:13;11.98;;;10.75;;
56122;SDS011;42426;46.104;19.656;2022-08-19T09:48:41;16.50;;;11.18;;
56122;SDS011;42426;46.104;19.656;2022-08-19T09:51:11;11.77;;;10.45;;
56122;SDS011;42426;46.104;19.656;2022-08-19T09:56:06;11.27;;;9.82;;
56122;SDS011;42426;46.104;19.656;2022-08-19T09:58:32;12.48;;;10.18;;
56122;SDS011;42426;46.104;19.656;2022-08-19T10:00:59;15.25;;;11.18;;
56122;SDS011;42426;46.104;19.656;2022-08-19T10:03:26;11.65;;;9.65;;
56122;SDS011;42426;46.104;19.656;2022-08-19T10:05:54;14.20;;;11.35;;
56122;SDS011;42426;46.104;19.656;2022-08-19T10:08:28;12.75;;;10.77;;
56122;SDS011;42426;46.104;19.656;2022-08-19T10:10:56;14.27;;;10.93;;
56122;SDS011;42426;46.104;19.656;2022-08-19T10:13:23;11.57;;;10.35;;
56122;SDS011;42426;46.104;19.656;2022-08-19T10:15:54;17.10;;;10.27;;
56122;SDS011;42426;46.104;19.656;2022-08-19T10:18:22;12.95;;;10.38;;
56122;SDS011;42426;46.104;19.656;2022-08-19T10:21:01;12.32;;;10.07;;
56122;SDS011;42426;46.104;19.656;2022-08-19T10:23:39;15.07;;;10.48;;
56122;SDS011;42426;46.104;19.656;2022-08-19T10:26:08;13.65;;;10.00;;
56122;SDS011;42426;46.104;19.656;2022-08-19T10:28:35;11.23;;;8.75;;
56122;SDS011;42426;46.104;19.656;2022-08-19T10:31:05;11.68;;;8.98;;
56122;SDS011;42426;46.104;19.656;2022-08-19T10:33:34;11.90;;;8.30;;
56122;SDS011;42426;46.104;19.656;2022-08-19T10:36:05;9.43;;;7.80;;
56122;SDS011;42426;46.104;19.656;2022-08-19T10:38:37;47.40;;;10.80;;
56122;SDS011;42426;46.104;19.656;2022-08-19T10:41:07;18.10;;;9.13;;
56122;SDS011;42426;46.104;19.656;2022-08-19T10:43:34;13.65;;;10.48;;
56122;SDS011;42426;46.104;19.656;2022-08-19T10:46:03;15.52;;;8.57;;
56122;SDS011;42426;46.104;19.656;2022-08-19T10:48:30;12.88;;;8.50;;
56122;SDS011;42426;46.104;19.656;2022-08-19T10:50:57;14.38;;;9.40;;
56122;SDS011;42426;46.104;19.656;2022-08-19T10:53:41;12.73;;;8.10;;
56122;SDS011;42426;46.104;19.656;2022-08-19T10:56:07;13.85;;;9.25;;
56122;SDS011;42426;46.104;19.656;2022-08-19T10:58:51;11.20;;;8.82;;
56122;SDS011;42426;46.104;19.656;2022-08-19T11:01:17;8.75;;;7.57;;
56122;SDS011;42426;46.104;19.656;2022-08-19T11:03:43;16.02;;;9.07;;
56122;SDS011;42426;46.104;19.656;2022-08-19T11:06:10;12.18;;;8.43;;
56122;SDS011;42426;46.104;19.656;2022-08-19T11:08:36;13.63;;;7.78;;
56122;SDS011;42426;46.104;19.656;2022-08-19T11:11:06;18.00;;;9.93;;
56122;SDS011;42426;46.104;19.656;2022-08-19T11:13:34;11.75;;;7.55;;
56122;SDS011;42426;46.104;19.656;2022-08-19T11:16:03;10.50;;;8.57;;
56122;SDS011;42426;46.104;19.656;2022-08-19T11:21:06;12.77;;;8.32;;
56122;SDS011;42426;46.104;19.656;2022-08-19T11:23:45;17.77;;;8.50;;
56122;SDS011;42426;46.104;19.656;2022-08-19T11:26:12;9.05;;;8.07;;
56122;SDS011;42426;46.104;19.656;2022-08-19T11:28:39;13.68;;;8.88;;
56122;SDS011;42426;46.104;19.656;2022-08-19T11:31:10;11.73;;;9.07;;
56122;SDS011;42426;46.104;19.656;2022-08-19T11:33:37;9.88;;;7.75;;
56122;SDS011;42426;46.104;19.656;2022-08-19T11:36:03;14.52;;;9.02;;
56122;SDS011;42426;46.104;19.656;2022-08-19T11:38:28;9.60;;;8.63;;
56122;SDS011;42426;46.104;19.656;2022-08-19T11:40:58;16.42;;;8.15;;
56122;SDS011;42426;46.104;19.656;2022-08-19T11:43:29;15.15;;;10.18;;
56122;SDS011;42426;46.104;19.656;2022-08-19T11:45:56;11.40;;;8.38;;
56122;SDS011;42426;46.104;19.656;2022-08-19T11:48:23;11.55;;;7.78;;
56122;SDS011;42426;46.104;19.656;2022-08-19T11:50:50;12.52;;;8.32;;
56122;SDS011;42426;46.104;19.656;2022-08-19T11:53:23;12.80;;;8.23;;
56122;SDS011;42426;46.104;19.656;2022-08-19T11:55:49;10.88;;;8.40;;
56122;SDS011;42426;46.104;19.656;2022-08-19T11:58:18;12.88;;;9.10;;
56122;SDS011;42426;46.104;19.656;2022-08-19T12:00:44;14.50;;;8.77;;
56122;SDS011;42426;46.104;19.656;2022-08-19T12:03:10;14.13;;;8.48;;
56122;SDS011;42426;46.104;19.656;2022-08-19T12:05:38;10.60;;;8.82;;
56122;SDS011;42426;46.104;19.656;2022-08-19T12:08:04;12.40;;;9.38;;
56122;SDS011;42426;46.104;19.656;2022-08-19T12:10:31;13.32;;;8.65;;
56122;SDS011;42426;46.104;19.656;2022-08-19T12:12:57;14.52;;;7.72;;
56122;SDS011;42426;46.104;19.656;2022-08-19T12:15:23;12.13;;;8.15;;
56122;SDS011;42426;46.104;19.656;2022-08-19T12:17:49;14.52;;;8.77;;
56122;SDS011;42426;46.104;19.656;2022-08-19T12:20:15;10.05;;;8.15;;
56122;SDS011;42426;46.104;19.656;2022-08-19T12:22:42;11.02;;;7.90;;
56122;SDS011;42426;46.104;19.656;2022-08-19T12:25:09;11.80;;;9.60;;
56122;SDS011;42426;46.104;19.656;2022-08-19T12:27:35;14.50;;;8.70;;
56122;SDS011;42426;46.104;19.656;2022-08-19T12:30:03;15.23;;;9.00;;
56122;SDS011;42426;46.104;19.656;2022-08-19T12:32:30;14.27;;;8.65;;
56122;SDS011;42426;46.104;19.656;2022-08-19T12:34:55;15.30;;;8.73;;
56122;SDS011;42426;46.104;19.656;2022-08-19T12:37:21;12.68;;;9.05;;
56122;SDS011;42426;46.104;19.656;2022-08-19T12:39:47;10.57;;;8.07;;
56122;SDS011;42426;46.104;19.656;2022-08-19T12:42:13;12.13;;;8.55;;
56122;SDS011;42426;46.104;19.656;2022-08-19T12:44:41;12.23;;;8.07;;
56122;SDS011;42426;46.104;19.656;2022-08-19T12:47:08;12.55;;;8.15;;
56122;SDS011;42426;46.104;19.656;2022-08-19T12:49:35;12.68;;;8.50;;
56122;SDS011;42426;46.104;19.656;2022-08-19T12:52:08;14.88;;;8.30;;
56122;SDS011;42426;46.104;19.656;2022-08-19T12:54:41;16.35;;;8.85;;
56122;SDS011;42426;46.104;19.656;2022-08-19T12:57:10;14.68;;;8.95;;
56122;SDS011;42426;46.104;19.656;2022-08-19T12:59:36;14.23;;;9.15;;
56122;SDS011;42426;46.104;19.656;2022-08-19T13:02:04;12.68;;;9.32;;
56122;SDS011;42426;46.104;19.656;2022-08-19T13:04:31;12.18;;;8.48;;
56122;SDS011;42426;46.104;19.656;2022-08-19T13:07:00;16.38;;;9.35;;
56122;SDS011;42426;46.104;19.656;2022-08-19T13:09:26;13.93;;;8.68;;
56122;SDS011;42426;46.104;19.656;2022-08-19T13:11:52;12.43;;;8.63;;
56122;SDS011;42426;46.104;19.656;2022-08-19T13:14:18;11.68;;;8.57;;
56122;SDS011;42426;46.104;19.656;2022-08-19T13:16:44;9.55;;;8.07;;
56122;SDS011;42426;46.104;19.656;2022-08-19T13:19:11;15.30;;;8.73;;
56122;SDS011;42426;46.104;19.656;2022-08-19T13:21:38;10.32;;;8.68;;
56122;SDS011;42426;46.104;19.656;2022-08-19T13:24:04;11.75;;;9.20;;
56122;SDS011;42426;46.104;19.656;2022-08-19T13:26:30;14.18;;;9.55;;
56122;SDS011;42426;46.104;19.656;2022-08-19T13:28:55;10.27;;;8.57;;
56122;SDS011;42426;46.104;19.656;2022-08-19T13:31:40;16.77;;;8.82;;
56122;SDS011;42426;46.104;19.656;2022-08-19T13:34:30;13.73;;;8.93;;
56122;SDS011;42426;46.104;19.656;2022-08-19T13:36:57;13.35;;;8.95;;
56122;SDS011;42426;46.104;19.656;2022-08-19T13:39:24;12.15;;;8.85;;
56122;SDS011;42426;46.104;19.656;2022-08-19T13:41:50;14.23;;;8.40;;
56122;SDS011;42426;46.104;19.656;2022-08-19T13:44:16;13.05;;;8.13;;
56122;SDS011;42426;46.104;19.656;2022-08-19T13:46:46;14.82;;;8.73;;
56122;SDS011;42426;46.104;19.656;2022-08-19T13:49:13;12.20;;;8.75;;
56122;SDS011;42426;46.104;19.656;2022-08-19T13:51:41;8.65;;;7.82;;
56122;SDS011;42426;46.104;19.656;2022-08-19T13:54:08;14.38;;;8.43;;
56122;SDS011;42426;46.104;19.656;2022-08-19T13:56:34;12.73;;;8.82;;
56122;SDS011;42426;46.104;19.656;2022-08-19T13:59:01;10.73;;;7.82;;
56122;SDS011;42426;46.104;19.656;2022-08-19T14:01:27;12.95;;;8.18;;
56122;SDS011;42426;46.104;19.656;2022-08-19T14:03:54;11.02;;;8.00;;
56122;SDS011;42426;46.104;19.656;2022-08-19T14:06:20;18.20;;;8.65;;
56122;SDS011;42426;46.104;19.656;2022-08-19T14:08:47;11.93;;;8.27;;
56122;SDS011;42426;46.104;19.656;2022-08-19T14:11:13;17.75;;;9.35;;
56122;SDS011;42426;46.104;19.656;2022-08-19T14:13:39;27.55;;;10.10;;
56122;SDS011;42426;46.104;19.656;2022-08-19T14:16:10;30.80;;;9.50;;
56122;SDS011;42426;46.104;19.656;2022-08-19T14:18:36;19.98;;;9.18;;
56122;SDS011;42426;46.104;19.656;2022-08-19T14:21:03;28.20;;;9.23;;
56122;SDS011;42426;46.104;19.656;2022-08-19T14:24:01;69.40;;;14.00;;
56122;SDS011;42426;46.104;19.656;2022-08-19T14:26:27;33.00;;;11.50;;
56122;SDS011;42426;46.104;19.656;2022-08-19T14:28:53;35.88;;;12.10;;
56122;SDS011;42426;46.104;19.656;2022-08-19T14:31:22;40.03;;;9.88;;
56122;SDS011;42426;46.104;19.656;2022-08-19T14:33:49;34.15;;;10.45;;
56122;SDS011;42426;46.104;19.656;2022-08-19T14:36:16;40.38;;;7.43;;
56122;SDS011;42426;46.104;19.656;2022-08-19T14:38:43;36.28;;;9.68;;
56122;SDS011;42426;46.104;19.656;2022-08-19T14:41:19;40.40;;;9.18;;